Time,TemperatureF,DewpointF,PressureIn,WindDirection,WindDirectionDegrees,WindSpeedMPH,WindSpeedGustMPH,Humidity,HourlyPrecipIn,Conditions,Clouds,dailyrainin,SoftwareType,DateUTC
2013-02-02 00:06:00,48.7,47.1,30.22,NE,37,2.0,11.0,94,0.00,,,0.00,meteohub,2013-02-02 08:06:00,
2013-02-02 00:11:00,48.7,47.1,30.22,North,352,7.0,11.0,94,0.00,,,0.00,meteohub,2013-02-02 08:11:00,
2013-02-02 00:16:00,48.7,47.1,30.22,North,358,5.0,11.0,94,0.00,,,0.00,meteohub,2013-02-02 08:16:00,
2013-02-02 00:21:00,48.7,47.1,30.22,North,359,7.0,8.0,94,0.00,,,0.00,meteohub,2013-02-02 08:21:00,
2013-02-02 00:27:00,48.9,47.3,30.22,NNW,330,4.0,9.0,94,0.00,,,0.00,meteohub,2013-02-02 08:27:00,
2013-02-02 00:32:00,48.9,47.3,30.22,NNE,27,4.0,9.0,94,0.00,,,0.00,meteohub,2013-02-02 08:32:00,
2013-02-02 00:37:00,49.1,47.5,30.22,North,349,6.0,9.0,94,0.00,,,0.00,meteohub,2013-02-02 08:37:00,
2013-02-02 00:42:00,49.3,47.7,30.22,NNE,18,7.0,9.0,94,0.00,,,0.00,meteohub,2013-02-02 08:42:00,
2013-02-02 00:47:00,49.3,47.7,30.22,North,350,4.0,8.0,94,0.00,,,0.00,meteohub,2013-02-02 08:47:00,
2013-02-02 00:52:00,49.3,47.7,30.22,North,356,3.0,8.0,94,0.00,,,0.00,meteohub,2013-02-02 08:52:00,
2013-02-02 00:57:00,49.3,47.3,30.22,North,349,2.0,10.0,93,0.00,,,0.00,meteohub,2013-02-02 08:57:00,
2013-02-02 01:02:00,49.5,47.5,30.22,NNW,335,4.0,10.0,93,0.00,,,0.00,meteohub,2013-02-02 09:02:00,
2013-02-02 01:07:00,49.5,47.5,30.22,North,352,3.0,10.0,93,0.00,,,0.00,meteohub,2013-02-02 09:07:00,
2013-02-02 01:12:00,49.5,47.5,30.22,NNW,345,5.0,10.0,93,0.00,,,0.00,meteohub,2013-02-02 09:12:00,
2013-02-02 01:17:00,49.5,47.5,30.22,North,354,2.0,10.0,93,0.00,,,0.00,meteohub,2013-02-02 09:17:00,
2013-02-02 01:22:00,49.5,47.5,30.22,NE,51,3.0,10.0,93,0.00,,,0.00,meteohub,2013-02-02 09:22:00,
2013-02-02 01:27:00,49.5,47.5,30.22,NNE,13,3.0,9.0,93,0.00,,,0.00,meteohub,2013-02-02 09:27:00,
2013-02-02 01:32:00,49.6,47.7,30.22,North,357,6.0,8.0,93,0.00,,,0.00,meteohub,2013-02-02 09:32:00,
2013-02-02 01:37:00,49.6,47.5,30.22,NNE,13,4.0,8.0,92,0.00,,,0.00,meteohub,2013-02-02 09:37:00,
2013-02-02 01:42:00,49.6,47.5,30.22,NNE,23,3.0,7.0,92,0.00,,,0.00,meteohub,2013-02-02 09:42:00,
2013-02-02 01:47:00,49.6,47.5,30.23,NNW,338,4.0,7.0,92,0.00,,,0.00,meteohub,2013-02-02 09:47:00,
2013-02-02 01:52:00,49.6,47.5,30.23,ENE,60,4.0,9.0,92,0.00,,,0.00,meteohub,2013-02-02 09:52:00,
2013-02-02 01:57:00,49.6,47.5,30.23,NW,318,0.0,9.0,92,0.00,,,0.00,meteohub,2013-02-02 09:57:00,
2013-02-02 02:02:00,49.6,47.5,30.23,North,352,2.0,9.0,92,0.00,,,0.00,meteohub,2013-02-02 10:02:00,
2013-02-02 02:07:00,49.6,47.5,30.23,North,359,3.0,6.0,92,0.00,,,0.00,meteohub,2013-02-02 10:07:00,
2013-02-02 02:12:00,49.6,47.5,30.23,North,357,4.0,6.0,92,0.00,,,0.00,meteohub,2013-02-02 10:12:00,
2013-02-02 02:17:00,49.6,47.5,30.23,North,350,3.0,5.0,92,0.00,,,0.00,meteohub,2013-02-02 10:17:00,
2013-02-02 02:22:00,49.6,47.5,30.23,NNW,338,4.0,7.0,92,0.00,,,0.00,meteohub,2013-02-02 10:22:00,
2013-02-02 02:27:00,49.6,47.5,30.23,NW,316,2.0,7.0,92,0.00,,,0.00,meteohub,2013-02-02 10:27:00,
2013-02-02 02:32:00,49.6,47.5,30.23,NW,319,3.0,8.0,92,0.00,,,0.00,meteohub,2013-02-02 10:32:00,
2013-02-02 02:37:00,49.6,47.5,30.23,NNE,19,3.0,8.0,92,0.00,,,0.00,meteohub,2013-02-02 10:37:00,
2013-02-02 02:42:00,49.6,47.5,30.23,NNE,13,3.0,8.0,92,0.00,,,0.00,meteohub,2013-02-02 10:42:00,
2013-02-02 02:47:00,49.6,47.5,30.23,North,5,2.0,6.0,92,0.00,,,0.00,meteohub,2013-02-02 10:47:00,
2013-02-02 02:52:00,49.6,47.5,30.23,NW,304,3.0,7.0,92,0.00,,,0.00,meteohub,2013-02-02 10:52:00,
2013-02-02 02:57:00,49.6,47.5,30.23,North,5,2.0,7.0,92,0.00,,,0.00,meteohub,2013-02-02 10:57:00,
2013-02-02 03:02:00,49.6,47.5,30.23,NE,34,1.0,7.0,92,0.00,,,0.00,meteohub,2013-02-02 11:02:00,
2013-02-02 03:07:00,49.6,47.5,30.23,NNW,332,1.0,7.0,92,0.00,,,0.00,meteohub,2013-02-02 11:07:00,
2013-02-02 03:12:00,49.6,47.5,30.23,NNW,330,1.0,7.0,92,0.00,,,0.00,meteohub,2013-02-02 11:12:00,
2013-02-02 03:17:00,49.6,47.5,30.23,NNW,332,3.0,5.0,92,0.00,,,0.00,meteohub,2013-02-02 11:17:00,
2013-02-02 03:22:00,49.6,47.5,30.23,NNW,331,2.0,7.0,92,0.00,,,0.00,meteohub,2013-02-02 11:22:00,
2013-02-02 03:27:00,49.6,47.5,30.23,North,11,1.0,7.0,92,0.00,,,0.00,meteohub,2013-02-02 11:27:00,
2013-02-02 03:32:00,49.6,47.5,30.23,NNW,340,1.0,7.0,92,0.00,,,0.00,meteohub,2013-02-02 11:32:00,
2013-02-02 03:37:00,49.6,47.5,30.23,NNW,345,3.0,5.0,92,0.00,,,0.00,meteohub,2013-02-02 11:37:00,
2013-02-02 03:42:00,49.6,47.5,30.22,NNW,338,1.0,5.0,92,0.00,,,0.00,meteohub,2013-02-02 11:42:00,
2013-02-02 03:47:00,49.5,47.3,30.22,NNW,340,1.0,4.0,92,0.00,,,0.00,meteohub,2013-02-02 11:47:00,
2013-02-02 03:52:00,49.5,47.3,30.22,NNE,18,1.0,4.0,92,0.00,,,0.00,meteohub,2013-02-02 11:52:00,
2013-02-02 03:57:00,49.5,47.3,30.21,NNE,16,2.0,4.0,92,0.00,,,0.00,meteohub,2013-02-02 11:57:00,
2013-02-02 04:02:00,49.3,47.1,30.21,North,350,2.0,4.0,92,0.00,,,0.00,meteohub,2013-02-02 12:02:00,
2013-02-02 04:07:00,49.3,47.3,30.21,North,352,1.0,4.0,93,0.00,,,0.00,meteohub,2013-02-02 12:07:00,
2013-02-02 04:12:00,49.3,47.3,30.21,NNW,344,1.0,4.0,93,0.00,,,0.00,meteohub,2013-02-02 12:12:00,
2013-02-02 04:17:00,49.3,47.3,30.21,North,0,2.0,4.0,93,0.00,,,0.00,meteohub,2013-02-02 12:17:00,
2013-02-02 04:22:00,49.3,47.3,30.22,NW,326,0.0,4.0,93,0.00,,,0.00,meteohub,2013-02-02 12:22:00,
2013-02-02 04:27:00,49.3,47.3,30.22,North,356,2.0,6.0,93,0.00,,,0.00,meteohub,2013-02-02 12:27:00,
2013-02-02 04:32:00,49.3,47.3,30.22,North,356,0.0,6.0,93,0.00,,,0.00,meteohub,2013-02-02 12:32:00,
2013-02-02 04:37:00,49.3,47.3,30.22,NNW,340,4.0,4.0,93,0.00,,,0.00,meteohub,2013-02-02 12:37:00,
2013-02-02 04:42:00,49.3,47.3,30.22,NNW,344,1.0,4.0,93,0.00,,,0.00,meteohub,2013-02-02 12:42:00,
2013-02-02 04:47:00,49.3,47.3,30.22,North,6,1.0,4.0,93,0.00,,,0.00,meteohub,2013-02-02 12:47:00,
2013-02-02 04:52:00,49.3,47.3,30.22,North,5,1.0,4.0,93,0.00,,,0.00,meteohub,2013-02-02 12:52:00,
2013-02-02 04:57:00,49.3,47.3,30.22,North,5,1.0,1.0,93,0.00,,,0.00,meteohub,2013-02-02 12:57:00,
2013-02-02 05:02:00,49.3,47.3,30.22,North,349,0.0,3.0,93,0.00,,,0.00,meteohub,2013-02-02 13:02:00,
2013-02-02 05:07:00,49.1,47.1,30.22,North,356,1.0,4.0,93,0.00,,,0.00,meteohub,2013-02-02 13:07:00,
2013-02-02 05:12:00,48.9,46.9,30.22,North,4,1.0,4.0,93,0.00,,,0.00,meteohub,2013-02-02 13:12:00,
2013-02-02 05:17:00,48.9,46.9,30.22,North,1,2.0,4.0,93,0.00,,,0.00,meteohub,2013-02-02 13:17:00,
2013-02-02 05:22:00,48.9,46.9,30.22,North,8,1.0,4.0,93,0.00,,,0.00,meteohub,2013-02-02 13:22:00,
2013-02-02 05:27:00,48.7,46.8,30.22,North,356,1.0,4.0,93,0.00,,,0.00,meteohub,2013-02-02 13:27:00,
2013-02-02 05:32:00,48.7,46.8,30.22,North,352,0.0,3.0,93,0.00,,,0.00,meteohub,2013-02-02 13:32:00,
2013-02-02 05:37:00,48.7,46.8,30.23,NW,322,1.0,2.0,93,0.00,,,0.00,meteohub,2013-02-02 13:37:00,
2013-02-02 05:43:00,48.7,46.8,30.22,North,11,2.0,2.0,93,0.00,,,0.00,meteohub,2013-02-02 13:43:00,
2013-02-02 05:48:00,48.7,46.8,30.22,North,349,1.0,3.0,93,0.00,,,0.00,meteohub,2013-02-02 13:48:00,
2013-02-02 05:53:00,48.7,46.8,30.22,North,356,0.0,3.0,93,0.00,,,0.00,meteohub,2013-02-02 13:53:00,
2013-02-02 05:58:00,48.9,46.9,30.22,NNE,13,1.0,4.0,93,0.00,,,0.00,meteohub,2013-02-02 13:58:00,
2013-02-02 06:03:00,48.9,46.9,30.22,North,356,1.0,4.0,93,0.00,,,0.00,meteohub,2013-02-02 14:03:00,
2013-02-02 06:08:00,48.9,46.9,30.23,NNW,345,3.0,4.0,93,0.00,,,0.00,meteohub,2013-02-02 14:08:00,
2013-02-02 06:13:00,48.9,46.9,30.23,North,352,0.0,5.0,93,0.00,,,0.00,meteohub,2013-02-02 14:13:00,
2013-02-02 06:18:00,48.9,46.9,30.23,North,356,2.0,5.0,93,0.00,,,0.00,meteohub,2013-02-02 14:18:00,
2013-02-02 06:23:00,48.9,46.9,30.23,NW,323,1.0,5.0,93,0.00,,,0.00,meteohub,2013-02-02 14:23:00,
2013-02-02 06:28:00,48.9,46.9,30.23,NNE,15,0.0,4.0,93,0.00,,,0.00,meteohub,2013-02-02 14:28:00,
2013-02-02 06:34:00,48.9,46.9,30.23,NW,324,1.0,4.0,93,0.00,,,0.00,meteohub,2013-02-02 14:34:00,
2013-02-02 06:39:00,48.9,46.9,30.23,NE,39,1.0,5.0,93,0.00,,,0.00,meteohub,2013-02-02 14:39:00,
2013-02-02 06:44:00,48.9,46.9,30.23,NNW,338,1.0,5.0,93,0.00,,,0.00,meteohub,2013-02-02 14:44:00,
2013-02-02 06:49:00,48.9,46.9,30.24,NNW,347,1.0,5.0,93,0.00,,,0.00,meteohub,2013-02-02 14:49:00,
2013-02-02 06:54:00,48.9,46.9,30.24,NW,323,2.0,5.0,93,0.00,,,0.00,meteohub,2013-02-02 14:54:00,
2013-02-02 06:59:00,48.9,46.9,30.24,North,0,2.0,5.0,93,0.00,,,0.00,meteohub,2013-02-02 14:59:00,
2013-02-02 07:04:00,48.9,46.9,30.25,NNE,12,0.0,6.0,93,0.00,,,0.00,meteohub,2013-02-02 15:04:00,
2013-02-02 07:09:00,48.9,46.9,30.25,North,5,2.0,6.0,93,0.00,,,0.00,meteohub,2013-02-02 15:09:00,
2013-02-02 07:15:00,48.9,46.9,30.25,North,1,2.0,6.0,93,0.00,,,0.00,meteohub,2013-02-02 15:15:00,
2013-02-02 07:20:00,48.9,46.9,30.25,NNE,12,1.0,5.0,93,0.00,,,0.00,meteohub,2013-02-02 15:20:00,
2013-02-02 07:25:00,49.1,47.1,30.25,NNE,15,2.0,5.0,93,0.00,,,0.00,meteohub,2013-02-02 15:25:00,
2013-02-02 07:30:00,49.1,47.1,30.25,North,0,1.0,5.0,93,0.00,,,0.00,meteohub,2013-02-02 15:30:00,
2013-02-02 07:35:00,49.3,47.3,30.26,NNE,22,3.0,3.0,93,0.00,,,0.00,meteohub,2013-02-02 15:35:00,
2013-02-02 07:40:00,49.3,47.3,30.25,North,11,0.0,3.0,93,0.00,,,0.00,meteohub,2013-02-02 15:40:00,
2013-02-02 07:45:00,49.3,47.3,30.26,NNW,336,1.0,3.0,93,0.00,,,0.00,meteohub,2013-02-02 15:45:00,
2013-02-02 07:50:00,49.3,47.3,30.26,NNW,328,1.0,3.0,93,0.00,,,0.00,meteohub,2013-02-02 15:50:00,
2013-02-02 07:55:00,49.5,47.3,30.26,NNE,18,1.0,4.0,92,0.00,,,0.00,meteohub,2013-02-02 15:55:00,
2013-02-02 08:00:00,49.5,47.3,30.26,NW,320,0.0,4.0,92,0.00,,,0.00,meteohub,2013-02-02 16:00:00,
2013-02-02 08:06:00,49.5,47.3,30.27,NNE,18,1.0,4.0,92,0.00,,,0.00,meteohub,2013-02-02 16:06:00,
2013-02-02 08:11:00,49.5,47.3,30.27,NNW,335,0.0,5.0,92,0.00,,,0.00,meteohub,2013-02-02 16:11:00,
2013-02-02 08:16:00,49.6,47.5,30.27,NNE,26,2.0,5.0,92,0.00,,,0.00,meteohub,2013-02-02 16:16:00,
2013-02-02 08:21:00,49.6,47.5,30.27,NNW,346,0.0,5.0,92,0.00,,,0.00,meteohub,2013-02-02 16:21:00,
2013-02-02 08:26:00,49.8,47.7,30.27,North,11,4.0,4.0,92,0.00,,,0.00,meteohub,2013-02-02 16:26:00,
2013-02-02 08:31:00,49.8,47.7,30.28,North,352,2.0,4.0,92,0.00,,,0.00,meteohub,2013-02-02 16:31:00,
2013-02-02 08:36:00,50.0,47.8,30.27,North,352,2.0,4.0,92,0.00,,,0.00,meteohub,2013-02-02 16:36:00,
2013-02-02 08:41:00,50.2,47.7,30.27,North,350,1.0,4.0,91,0.00,,,0.00,meteohub,2013-02-02 16:41:00,
2013-02-02 08:46:00,50.2,47.7,30.27,NNE,29,1.0,3.0,91,0.00,,,0.00,meteohub,2013-02-02 16:46:00,
2013-02-02 08:52:00,50.4,47.8,30.27,North,359,0.0,3.0,91,0.00,,,0.00,meteohub,2013-02-02 16:52:00,
2013-02-02 08:57:00,50.4,47.8,30.28,NNW,333,1.0,2.0,91,0.00,,,0.00,meteohub,2013-02-02 16:57:00,
2013-02-02 09:02:00,50.4,47.5,30.28,North,349,1.0,2.0,90,0.00,,,0.00,meteohub,2013-02-02 17:02:00,
2013-02-02 09:07:00,50.4,47.5,30.28,NNE,13,0.0,5.0,90,0.00,,,0.00,meteohub,2013-02-02 17:07:00,
2013-02-02 09:12:00,50.4,47.5,30.28,North,1,3.0,5.0,90,0.00,,,0.00,meteohub,2013-02-02 17:12:00,
2013-02-02 09:17:00,50.5,47.7,30.28,North,359,1.0,5.0,90,0.00,,,0.00,meteohub,2013-02-02 17:17:00,
2013-02-02 09:22:00,50.5,47.7,30.28,North,350,3.0,4.0,90,0.00,,,0.00,meteohub,2013-02-02 17:22:00,
2013-02-02 09:27:00,50.5,47.7,30.28,NNW,336,1.0,4.0,90,0.00,,,0.00,meteohub,2013-02-02 17:27:00,
2013-02-02 09:32:00,50.7,47.8,30.28,NNE,20,1.0,4.0,90,0.00,,,0.00,meteohub,2013-02-02 17:32:00,
2013-02-02 09:37:00,51.1,48.0,30.28,NNW,347,1.0,4.0,89,0.00,,,0.00,meteohub,2013-02-02 17:37:00,
2013-02-02 09:42:00,51.1,48.0,30.28,NW,319,0.0,4.0,89,0.00,,,0.00,meteohub,2013-02-02 17:42:00,
2013-02-02 09:47:00,51.3,48.2,30.28,NW,319,0.0,3.0,89,0.00,,,0.00,meteohub,2013-02-02 17:47:00,
2013-02-02 09:52:00,51.6,48.2,30.28,North,1,0.0,3.0,88,0.00,,,0.00,meteohub,2013-02-02 17:52:00,
2013-02-02 09:57:00,52.0,48.6,30.28,ESE,117,3.0,3.0,88,0.00,,,0.00,meteohub,2013-02-02 17:57:00,
2013-02-02 10:02:00,51.6,48.2,30.28,East,91,1.0,4.0,88,0.00,,,0.00,meteohub,2013-02-02 18:02:00,
2013-02-02 10:07:00,51.4,48.0,30.29,SE,127,3.0,4.0,88,0.00,,,0.00,meteohub,2013-02-02 18:07:00,
2013-02-02 10:12:00,51.3,47.8,30.29,ENE,65,1.0,4.0,88,0.00,,,0.00,meteohub,2013-02-02 18:12:00,
2013-02-02 10:17:00,51.3,47.8,30.29,SE,139,0.0,4.0,88,0.00,,,0.00,meteohub,2013-02-02 18:17:00,
2013-02-02 10:22:00,51.1,47.7,30.29,East,82,2.0,4.0,88,0.00,,,0.00,meteohub,2013-02-02 18:22:00,
2013-02-02 10:27:00,51.1,47.7,30.29,ESE,115,0.0,4.0,88,0.00,,,0.00,meteohub,2013-02-02 18:27:00,
2013-02-02 10:32:00,51.3,47.8,30.29,NE,34,1.0,4.0,88,0.00,,,0.00,meteohub,2013-02-02 18:32:00,
2013-02-02 10:37:00,51.3,47.8,30.29,NE,46,1.0,3.0,88,0.00,,,0.00,meteohub,2013-02-02 18:37:00,
2013-02-02 10:42:00,51.1,47.7,30.29,ESE,122,1.0,3.0,88,0.00,,,0.00,meteohub,2013-02-02 18:42:00,
2013-02-02 10:47:00,51.3,47.8,30.29,East,94,1.0,3.0,88,0.00,,,0.00,meteohub,2013-02-02 18:47:00,
2013-02-02 10:52:00,51.4,48.0,30.29,ENE,78,2.0,3.0,88,0.00,,,0.00,meteohub,2013-02-02 18:52:00,
2013-02-02 10:57:00,51.6,48.2,30.29,ENE,58,2.0,3.0,88,0.00,,,0.00,meteohub,2013-02-02 18:57:00,
2013-02-02 11:02:00,52.0,48.6,30.29,North,5,0.0,3.0,88,0.00,,,0.00,meteohub,2013-02-02 19:02:00,
2013-02-02 11:07:00,52.2,48.4,30.29,North,349,0.0,3.0,87,0.00,,,0.00,meteohub,2013-02-02 19:07:00,
2013-02-02 11:12:00,52.2,48.4,30.29,NNW,330,1.0,3.0,87,0.00,,,0.00,meteohub,2013-02-02 19:12:00,
2013-02-02 11:17:00,52.2,48.4,30.29,NNW,345,2.0,3.0,87,0.00,,,0.00,meteohub,2013-02-02 19:17:00,
2013-02-02 11:22:00,52.2,48.0,30.29,NNW,342,1.0,3.0,86,0.00,,,0.00,meteohub,2013-02-02 19:22:00,
2013-02-02 11:27:00,52.2,48.4,30.29,NNW,342,1.0,3.0,87,0.00,,,0.00,meteohub,2013-02-02 19:27:00,
2013-02-02 11:32:00,52.3,48.6,30.29,North,11,2.0,6.0,87,0.00,,,0.00,meteohub,2013-02-02 19:32:00,
2013-02-02 11:37:00,52.7,48.6,30.28,NNW,331,2.0,6.0,86,0.00,,,0.00,meteohub,2013-02-02 19:37:00,
2013-02-02 11:42:00,52.9,48.2,30.28,NNW,345,2.0,6.0,84,0.00,,,0.00,meteohub,2013-02-02 19:42:00,
2013-02-02 11:47:00,53.2,48.6,30.28,NNW,345,2.0,4.0,84,0.00,,,0.00,meteohub,2013-02-02 19:47:00,
2013-02-02 11:52:00,53.4,48.4,30.28,NNW,329,2.0,5.0,83,0.00,,,0.00,meteohub,2013-02-02 19:52:00,
2013-02-02 11:57:00,54.0,48.6,30.27,NNW,333,0.0,5.0,82,0.00,,,0.00,meteohub,2013-02-02 19:57:00,
2013-02-02 12:02:00,54.9,49.1,30.27,NNE,18,0.0,4.0,81,0.00,,,0.00,meteohub,2013-02-02 20:02:00,
2013-02-02 12:07:00,54.9,48.6,30.27,North,356,0.0,4.0,79,0.00,,,0.00,meteohub,2013-02-02 20:07:00,
2013-02-02 12:12:00,55.0,48.9,30.27,North,359,1.0,3.0,80,0.00,,,0.00,meteohub,2013-02-02 20:12:00,
2013-02-02 12:17:00,55.4,48.9,30.27,NNW,334,1.0,3.0,79,0.00,,,0.00,meteohub,2013-02-02 20:17:00,
2013-02-02 12:22:00,55.0,48.6,30.27,North,8,5.0,5.0,79,0.00,,,0.00,meteohub,2013-02-02 20:22:00,
2013-02-02 12:27:00,54.5,48.4,30.26,North,352,5.0,8.0,80,0.00,,,0.00,meteohub,2013-02-02 20:27:00,
2013-02-02 12:32:00,54.5,48.4,30.26,North,354,6.0,8.0,80,0.00,,,0.00,meteohub,2013-02-02 20:32:00,
2013-02-02 12:37:00,54.7,48.6,30.25,NW,306,4.0,7.0,80,0.00,,,0.00,meteohub,2013-02-02 20:37:00,
2013-02-02 12:42:00,54.7,48.6,30.25,NNW,342,4.0,7.0,80,0.00,,,0.00,meteohub,2013-02-02 20:42:00,
2013-02-02 12:47:00,54.3,48.6,30.25,NNW,338,4.0,9.0,81,0.00,,,0.00,meteohub,2013-02-02 20:47:00,
2013-02-02 12:52:00,54.5,48.4,30.25,NNW,344,4.0,9.0,80,0.00,,,0.00,meteohub,2013-02-02 20:52:00,
2013-02-02 12:57:00,54.1,48.0,30.25,North,9,2.0,9.0,80,0.00,,,0.00,meteohub,2013-02-02 20:57:00,
2013-02-02 13:02:00,54.0,48.2,30.24,NNE,27,3.0,8.0,81,0.00,,,0.00,meteohub,2013-02-02 21:02:00,
2013-02-02 13:07:00,54.1,48.4,30.24,NNW,340,5.0,9.0,81,0.00,,,0.00,meteohub,2013-02-02 21:07:00,
2013-02-02 13:12:00,54.3,48.6,30.24,North,352,3.0,9.0,81,0.00,,,0.00,meteohub,2013-02-02 21:12:00,
2013-02-02 13:17:00,54.3,48.6,30.24,NNW,338,2.0,9.0,81,0.00,,,0.00,meteohub,2013-02-02 21:17:00,
2013-02-02 13:22:00,54.3,48.2,30.24,North,4,3.0,8.0,80,0.00,,,0.00,meteohub,2013-02-02 21:22:00,
2013-02-02 13:27:00,55.0,48.6,30.24,NW,305,2.0,10.0,79,0.00,,,0.00,meteohub,2013-02-02 21:27:00,
2013-02-02 13:32:00,55.2,48.6,30.24,North,9,4.0,10.0,78,0.00,,,0.00,meteohub,2013-02-02 21:32:00,
2013-02-02 13:37:00,55.0,48.6,30.23,NNW,340,1.0,7.0,79,0.00,,,0.00,meteohub,2013-02-02 21:37:00,
2013-02-02 13:42:00,55.0,48.6,30.23,NW,317,2.0,8.0,79,0.00,,,0.00,meteohub,2013-02-02 21:42:00,
2013-02-02 13:47:00,55.2,48.7,30.23,North,4,3.0,9.0,79,0.00,,,0.00,meteohub,2013-02-02 21:47:00,
2013-02-02 13:52:00,55.0,48.6,30.23,North,11,4.0,9.0,79,0.00,,,0.00,meteohub,2013-02-02 21:52:00,
2013-02-02 13:57:00,55.0,48.6,30.22,NNE,19,2.0,9.0,79,0.00,,,0.00,meteohub,2013-02-02 21:57:00,
2013-02-02 14:02:00,55.6,48.9,30.22,NW,321,1.0,9.0,78,0.00,,,0.00,meteohub,2013-02-02 22:02:00,
2013-02-02 14:07:00,55.6,48.6,30.22,NNE,20,6.0,8.0,77,0.00,,,0.00,meteohub,2013-02-02 22:07:00,
2013-02-02 14:12:00,55.2,48.6,30.22,NNE,27,5.0,8.0,78,0.00,,,0.00,meteohub,2013-02-02 22:12:00,
2013-02-02 14:17:00,55.6,48.9,30.22,NNE,23,5.0,8.0,78,0.00,,,0.00,meteohub,2013-02-02 22:17:00,
2013-02-02 14:22:00,55.9,49.1,30.22,ENE,67,1.0,8.0,78,0.00,,,0.00,meteohub,2013-02-02 22:22:00,
2013-02-02 14:27:00,55.9,48.9,30.22,North,354,6.0,8.0,77,0.00,,,0.00,meteohub,2013-02-02 22:27:00,
2013-02-02 14:32:00,55.8,48.9,30.22,NNW,347,4.0,8.0,78,0.00,,,0.00,meteohub,2013-02-02 22:32:00,
2013-02-02 14:37:00,56.1,49.3,30.22,NNW,340,1.0,8.0,78,0.00,,,0.00,meteohub,2013-02-02 22:37:00,
2013-02-02 14:42:00,56.5,49.3,30.22,NNE,12,4.0,7.0,77,0.00,,,0.00,meteohub,2013-02-02 22:42:00,
2013-02-02 14:47:00,56.8,49.6,30.22,NW,321,2.0,6.0,77,0.00,,,0.00,meteohub,2013-02-02 22:47:00,
2013-02-02 14:52:00,57.0,49.5,30.22,NNW,342,0.0,5.0,76,0.00,,,0.00,meteohub,2013-02-02 22:52:00,
2013-02-02 14:57:00,57.7,49.8,30.22,NNW,329,1.0,5.0,75,0.00,,,0.00,meteohub,2013-02-02 22:57:00,
2013-02-02 15:02:00,57.9,49.6,30.22,North,356,1.0,5.0,74,0.00,,,0.00,meteohub,2013-02-02 23:02:00,
2013-02-02 15:07:00,58.5,49.8,30.22,NNW,342,1.0,4.0,73,0.00,,,0.00,meteohub,2013-02-02 23:07:00,
2013-02-02 15:12:00,58.3,49.6,30.22,North,356,1.0,4.0,73,0.00,,,0.00,meteohub,2013-02-02 23:12:00,
2013-02-02 15:17:00,58.3,49.6,30.22,NNW,338,3.0,4.0,73,0.00,,,0.00,meteohub,2013-02-02 23:17:00,
2013-02-02 15:22:00,57.7,49.5,30.22,NW,320,0.0,6.0,74,0.00,,,0.00,meteohub,2013-02-02 23:22:00,
2013-02-02 15:27:00,57.4,49.1,30.22,NNE,16,5.0,6.0,74,0.00,,,0.00,meteohub,2013-02-02 23:27:00,
2013-02-02 15:32:00,56.7,48.7,30.22,NNE,12,1.0,6.0,75,0.00,,,0.00,meteohub,2013-02-02 23:32:00,
2013-02-02 15:37:00,56.5,48.9,30.22,North,356,5.0,7.0,76,0.00,,,0.00,meteohub,2013-02-02 23:37:00,
2013-02-02 15:42:00,55.9,48.9,30.23,NNE,12,5.0,7.0,77,0.00,,,0.00,meteohub,2013-02-02 23:42:00,
2013-02-02 15:47:00,55.2,48.6,30.23,NE,54,1.0,9.0,78,0.00,,,0.00,meteohub,2013-02-02 23:47:00,
2013-02-02 15:52:00,55.0,48.4,30.23,NW,312,2.0,9.0,78,0.00,,,0.00,meteohub,2013-02-02 23:52:00,
2013-02-02 15:57:00,54.9,48.2,30.23,North,350,2.0,9.0,78,0.00,,,0.00,meteohub,2013-02-02 23:57:00,
2013-02-02 16:02:00,54.3,48.0,30.23,NNW,342,2.0,8.0,79,0.00,,,0.00,meteohub,2013-02-03 00:02:00,
2013-02-02 16:07:00,54.1,48.0,30.23,NNE,19,6.0,8.0,80,0.00,,,0.00,meteohub,2013-02-03 00:07:00,
2013-02-02 16:12:00,53.8,48.0,30.23,WNW,300,1.0,10.0,81,0.00,,,0.00,meteohub,2013-02-03 00:12:00,
2013-02-02 16:17:00,53.8,48.4,30.23,NNE,27,4.0,10.0,82,0.00,,,0.00,meteohub,2013-02-03 00:17:00,
2013-02-02 16:22:00,53.4,48.0,30.23,North,351,2.0,10.0,82,0.00,,,0.00,meteohub,2013-02-03 00:22:00,
2013-02-02 16:27:00,53.2,47.8,30.22,NNW,347,3.0,7.0,82,0.00,,,0.00,meteohub,2013-02-03 00:27:00,
2013-02-02 16:32:00,53.1,48.0,30.22,NNE,20,6.0,10.0,83,0.00,,,0.00,meteohub,2013-02-03 00:32:00,
2013-02-02 16:37:00,52.9,47.8,30.22,NW,324,2.0,10.0,83,0.00,,,0.00,meteohub,2013-02-03 00:37:00,
2013-02-02 16:42:00,52.7,47.7,30.22,NNE,27,5.0,8.0,83,0.00,,,0.00,meteohub,2013-02-03 00:42:00,
2013-02-02 16:47:00,52.5,47.5,30.22,North,8,4.0,8.0,83,0.00,,,0.00,meteohub,2013-02-03 00:47:00,
2013-02-02 16:52:00,52.5,47.8,30.22,West,278,1.0,8.0,84,0.00,,,0.00,meteohub,2013-02-03 00:52:00,
2013-02-02 16:57:00,52.3,47.3,30.22,NW,314,3.0,7.0,83,0.00,,,0.00,meteohub,2013-02-03 00:57:00,
2013-02-02 17:02:00,52.3,47.7,30.22,NW,322,3.0,7.0,84,0.00,,,0.00,meteohub,2013-02-03 01:02:00,
2013-02-02 17:07:00,52.2,47.5,30.22,NW,324,3.0,6.0,84,0.00,,,0.00,meteohub,2013-02-03 01:07:00,
2013-02-02 17:12:00,52.0,47.7,30.22,NW,314,4.0,6.0,85,0.00,,,0.00,meteohub,2013-02-03 01:12:00,
2013-02-02 17:17:00,51.8,47.5,30.22,North,0,1.0,7.0,85,0.00,,,0.00,meteohub,2013-02-03 01:17:00,
2013-02-02 17:22:00,51.6,47.3,30.22,NW,307,3.0,7.0,85,0.00,,,0.00,meteohub,2013-02-03 01:22:00,
2013-02-02 17:27:00,51.6,47.3,30.22,North,352,3.0,8.0,85,0.00,,,0.00,meteohub,2013-02-03 01:27:00,
2013-02-02 17:32:00,51.4,47.1,30.22,NNE,23,1.0,8.0,85,0.00,,,0.00,meteohub,2013-02-03 01:32:00,
2013-02-02 17:37:00,51.4,47.1,30.22,NNW,338,3.0,6.0,85,0.00,,,0.00,meteohub,2013-02-03 01:37:00,
2013-02-02 17:42:00,51.4,47.1,30.22,West,263,0.0,6.0,85,0.00,,,0.00,meteohub,2013-02-03 01:42:00,
2013-02-02 17:47:00,51.4,47.1,30.22,SSW,200,1.0,6.0,85,0.00,,,0.00,meteohub,2013-02-03 01:47:00,
2013-02-02 17:52:00,51.3,46.9,30.22,NNW,346,2.0,6.0,85,0.00,,,0.00,meteohub,2013-02-03 01:52:00,
2013-02-02 17:57:00,51.3,47.3,30.22,North,1,0.0,5.0,86,0.00,,,0.00,meteohub,2013-02-03 01:57:00,
2013-02-02 18:02:00,51.3,47.3,30.22,NNW,345,0.0,5.0,86,0.00,,,0.00,meteohub,2013-02-03 02:02:00,
2013-02-02 18:07:00,51.3,47.3,30.22,West,280,0.0,5.0,86,0.00,,,0.00,meteohub,2013-02-03 02:07:00,
2013-02-02 18:12:00,51.1,47.3,30.22,NW,309,0.0,2.0,87,0.00,,,0.00,meteohub,2013-02-03 02:12:00,
2013-02-02 18:17:00,51.1,47.3,30.22,NNE,15,1.0,2.0,87,0.00,,,0.00,meteohub,2013-02-03 02:17:00,
2013-02-02 18:22:00,50.9,47.1,30.22,NW,310,0.0,2.0,87,0.00,,,0.00,meteohub,2013-02-03 02:22:00,
2013-02-02 18:27:00,50.7,46.9,30.22,ESE,117,0.0,1.0,87,0.00,,,0.00,meteohub,2013-02-03 02:27:00,
2013-02-02 18:32:00,50.7,47.3,30.23,WSW,257,0.0,2.0,88,0.00,,,0.00,meteohub,2013-02-03 02:32:00,
2013-02-02 18:37:00,50.5,47.1,30.22,SSW,207,1.0,2.0,88,0.00,,,0.00,meteohub,2013-02-03 02:37:00,
2013-02-02 18:42:00,50.5,47.1,30.23,NNW,347,0.0,2.0,88,0.00,,,0.00,meteohub,2013-02-03 02:42:00,
2013-02-02 18:47:00,50.5,47.5,30.23,NW,305,0.0,2.0,89,0.00,,,0.00,meteohub,2013-02-03 02:47:00,
2013-02-02 18:52:00,50.5,47.5,30.23,NNW,330,0.0,2.0,89,0.00,,,0.00,meteohub,2013-02-03 02:52:00,
2013-02-02 18:57:00,50.4,47.3,30.23,NNW,330,0.0,2.0,89,0.00,,,0.00,meteohub,2013-02-03 02:57:00,
2013-02-02 19:02:00,50.5,47.5,30.23,North,356,0.0,1.0,89,0.00,,,0.00,meteohub,2013-02-03 03:02:00,
2013-02-02 19:07:00,50.5,47.5,30.22,NW,316,0.0,2.0,89,0.00,,,0.00,meteohub,2013-02-03 03:07:00,
2013-02-02 19:12:00,50.5,47.1,30.22,NNW,347,0.0,2.0,88,0.00,,,0.00,meteohub,2013-02-03 03:12:00,
2013-02-02 19:17:00,50.4,46.9,30.22,North,9,0.0,2.0,88,0.00,,,0.00,meteohub,2013-02-03 03:17:00,
2013-02-02 19:22:00,50.4,46.9,30.22,North,352,1.0,2.0,88,0.00,,,0.00,meteohub,2013-02-03 03:22:00,
2013-02-02 19:27:00,50.4,46.9,30.23,North,356,0.0,3.0,88,0.00,,,0.00,meteohub,2013-02-03 03:27:00,
2013-02-02 19:32:00,50.4,46.9,30.23,WNW,294,1.0,3.0,88,0.00,,,0.00,meteohub,2013-02-03 03:32:00,
2013-02-02 19:37:00,50.4,47.3,30.23,SSE,158,0.0,3.0,89,0.00,,,0.00,meteohub,2013-02-03 03:37:00,
2013-02-02 19:42:00,50.2,46.8,30.23,NNW,333,2.0,4.0,88,0.00,,,0.00,meteohub,2013-02-03 03:42:00,
2013-02-02 19:47:00,50.2,46.8,30.23,NW,317,2.0,5.0,88,0.00,,,0.00,meteohub,2013-02-03 03:47:00,
2013-02-02 19:52:00,50.2,46.8,30.23,North,9,1.0,5.0,88,0.00,,,0.00,meteohub,2013-02-03 03:52:00,
2013-02-02 19:57:00,50.2,46.8,30.23,NW,321,0.0,5.0,88,0.00,,,0.00,meteohub,2013-02-03 03:57:00,
2013-02-02 20:02:00,50.0,46.6,30.23,NNW,332,0.0,3.0,88,0.00,,,0.00,meteohub,2013-02-03 04:02:00,
2013-02-02 20:07:00,49.8,46.8,30.23,North,11,0.0,3.0,89,0.00,,,0.00,meteohub,2013-02-03 04:07:00,
2013-02-02 20:12:00,49.6,46.6,30.23,NNW,347,0.0,2.0,89,0.00,,,0.00,meteohub,2013-02-03 04:12:00,
2013-02-02 20:17:00,49.6,46.6,30.23,North,0,0.0,2.0,89,0.00,,,0.00,meteohub,2013-02-03 04:17:00,
2013-02-02 20:22:00,49.5,46.6,30.23,NNW,342,1.0,2.0,90,0.00,,,0.00,meteohub,2013-02-03 04:22:00,
2013-02-02 20:27:00,49.3,46.4,30.23,NNW,346,1.0,2.0,90,0.00,,,0.00,meteohub,2013-02-03 04:27:00,
2013-02-02 20:32:00,49.3,46.4,30.23,North,349,0.0,2.0,90,0.00,,,0.00,meteohub,2013-02-03 04:32:00,
2013-02-02 20:37:00,49.3,46.4,30.23,NNW,344,0.0,1.0,90,0.00,,,0.00,meteohub,2013-02-03 04:37:00,
2013-02-02 20:42:00,49.1,46.6,30.23,North,9,1.0,1.0,91,0.00,,,0.00,meteohub,2013-02-03 04:42:00,
2013-02-02 20:47:00,49.1,46.6,30.23,NNW,328,1.0,1.0,91,0.00,,,0.00,meteohub,2013-02-03 04:47:00,
2013-02-02 20:52:00,48.9,46.4,30.23,NNW,343,0.0,2.0,91,0.00,,,0.00,meteohub,2013-02-03 04:52:00,
2013-02-02 20:57:00,48.9,46.4,30.23,NNE,20,0.0,2.0,91,0.00,,,0.00,meteohub,2013-02-03 04:57:00,
2013-02-02 21:00:00,48.9,46.4,30.23,NE,53,1.0,2.0,91,0.00,,,0.00,meteohub,2013-02-03 05:00:00,
2013-02-02 21:01:00,48.9,46.4,30.23,NW,316,0.0,2.0,91,0.00,,,0.00,meteohub,2013-02-03 05:01:00,
2013-02-02 21:02:00,48.9,46.0,30.23,NW,316,0.0,2.0,90,0.00,,,0.00,meteohub,2013-02-03 05:02:00,
2013-02-02 21:03:00,49.1,46.2,30.23,NNW,338,1.0,2.0,90,0.00,,,0.00,meteohub,2013-02-03 05:03:00,
2013-02-02 21:08:00,49.1,46.2,30.23,NNW,336,1.0,2.0,90,0.00,,,0.00,meteohub,2013-02-03 05:08:00,
2013-02-02 21:13:00,49.1,46.2,30.23,NNW,347,1.0,3.0,90,0.00,,,0.00,meteohub,2013-02-03 05:13:00,
2013-02-02 21:18:00,49.1,46.2,30.23,NNW,346,0.0,3.0,90,0.00,,,0.00,meteohub,2013-02-03 05:18:00,
2013-02-02 21:23:00,48.9,46.0,30.23,NNE,18,0.0,2.0,90,0.00,,,0.00,meteohub,2013-02-03 05:23:00,
2013-02-02 21:28:00,48.9,46.4,30.23,NW,318,1.0,2.0,91,0.00,,,0.00,meteohub,2013-02-03 05:28:00,
2013-02-02 21:33:00,48.9,46.0,30.23,NW,326,0.0,2.0,90,0.00,,,0.00,meteohub,2013-02-03 05:33:00,
2013-02-02 21:39:00,48.7,46.2,30.22,North,352,0.0,2.0,91,0.00,,,0.00,meteohub,2013-02-03 05:39:00,
2013-02-02 21:44:00,48.7,46.2,30.22,SE,134,0.0,2.0,91,0.00,,,0.00,meteohub,2013-02-03 05:44:00,
2013-02-02 21:49:00,48.6,46.0,30.22,North,6,0.0,2.0,91,0.00,,,0.00,meteohub,2013-02-03 05:49:00,
2013-02-02 21:54:00,48.6,46.0,30.22,North,353,0.0,1.0,91,0.00,,,0.00,meteohub,2013-02-03 05:54:00,
2013-02-02 21:59:00,48.6,46.0,30.22,NNE,13,1.0,1.0,91,0.00,,,0.00,meteohub,2013-02-03 05:59:00,
2013-02-02 22:04:00,48.4,45.9,30.22,SSE,155,0.0,1.0,91,0.00,,,0.00,meteohub,2013-02-03 06:04:00,
2013-02-02 22:09:00,48.4,45.9,30.22,WNW,298,0.0,1.0,91,0.00,,,0.00,meteohub,2013-02-03 06:09:00,
2013-02-02 22:14:00,48.6,46.0,30.22,North,350,0.0,2.0,91,0.00,,,0.00,meteohub,2013-02-03 06:14:00,
2013-02-02 22:19:00,48.6,45.7,30.22,SE,126,0.0,3.0,90,0.00,,,0.00,meteohub,2013-02-03 06:19:00,
2013-02-02 22:24:00,48.6,45.7,30.22,NNW,335,0.0,3.0,90,0.00,,,0.00,meteohub,2013-02-03 06:24:00,
2013-02-02 22:29:00,48.6,45.7,30.22,WNW,290,0.0,3.0,90,0.00,,,0.00,meteohub,2013-02-03 06:29:00,
2013-02-02 22:34:00,48.6,45.7,30.22,North,1,1.0,4.0,90,0.00,,,0.00,meteohub,2013-02-03 06:34:00,
2013-02-02 22:40:00,48.4,45.3,30.22,North,359,0.0,4.0,89,0.00,,,0.00,meteohub,2013-02-03 06:40:00,
2013-02-02 22:45:00,48.0,45.0,30.22,North,0,0.0,2.0,89,0.00,,,0.00,meteohub,2013-02-03 06:45:00,
2013-02-02 22:50:00,47.8,45.0,30.22,North,0,0.0,2.0,90,0.00,,,0.00,meteohub,2013-02-03 06:50:00,
2013-02-02 22:55:00,47.7,45.0,30.23,North,0,0.0,1.0,90,0.00,,,0.00,meteohub,2013-02-03 06:55:00,
2013-02-02 23:00:00,47.5,45.0,30.23,North,0,0.0,1.0,91,0.00,,,0.00,meteohub,2013-02-03 07:00:00,
2013-02-02 23:05:00,47.1,44.6,30.23,North,359,0.0,1.0,91,0.00,,,0.00,meteohub,2013-02-03 07:05:00,
2013-02-02 23:10:00,46.9,44.8,30.23,North,0,1.0,1.0,92,0.00,,,0.00,meteohub,2013-02-03 07:10:00,
2013-02-02 23:15:00,46.8,44.6,30.23,North,359,0.0,1.0,92,0.00,,,0.00,meteohub,2013-02-03 07:15:00,
2013-02-02 23:20:00,46.8,44.8,30.23,North,356,0.0,1.0,93,0.00,,,0.00,meteohub,2013-02-03 07:20:00,
2013-02-02 23:25:00,46.8,44.6,30.24,North,356,0.0,1.0,92,0.00,,,0.00,meteohub,2013-02-03 07:25:00,
2013-02-02 23:30:00,46.4,44.2,30.24,North,356,0.0,1.0,92,0.00,,,0.00,meteohub,2013-02-03 07:30:00,
2013-02-02 23:36:00,46.4,44.4,30.24,NNW,344,0.0,1.0,93,0.00,,,0.00,meteohub,2013-02-03 07:36:00,
2013-02-02 23:41:00,46.4,44.4,30.24,NNW,344,0.0,1.0,93,0.00,,,0.00,meteohub,2013-02-03 07:41:00,
2013-02-02 23:46:00,46.2,44.2,30.24,NNW,345,0.0,1.0,93,0.00,,,0.00,meteohub,2013-02-03 07:46:00,
2013-02-02 23:51:00,46.0,44.1,30.24,NNW,344,0.0,1.0,93,0.00,,,0.00,meteohub,2013-02-03 07:51:00,
2013-02-02 23:56:00,46.0,44.1,30.24,NNW,345,0.0,1.0,93,0.00,,,0.00,meteohub,2013-02-03 07:56:00,